sensor_id;sensor_type;location;lat;lon;timestamp;P1;durP1;ratioP1;P2;durP2;ratioP2
51006;SDS011;37034;47.886;-3.904;2022-11-12T00:00:41;26.07;;;14.23;;
51006;SDS011;37034;47.886;-3.904;2022-11-12T00:03:08;20.48;;;12.18;;
51006;SDS011;37034;47.886;-3.904;2022-11-12T00:05:34;19.58;;;12.95;;
51006;SDS011;37034;47.886;-3.904;2022-11-12T00:07:59;25.93;;;14.43;;
51006;SDS011;37034;47.886;-3.904;2022-11-12T00:10:25;20.85;;;13.63;;
51006;SDS011;37034;47.886;-3.904;2022-11-12T00:12:51;19.87;;;12.47;;
51006;SDS011;37034;47.886;-3.904;2022-11-12T00:15:17;19.67;;;12.27;;
51006;SDS011;37034;47.886;-3.904;2022-11-12T00:17:43;18.30;;;13.52;;
51006;SDS011;37034;47.886;-3.904;2022-11-12T00:20:09;22.85;;;13.00;;
51006;SDS011;37034;47.886;-3.904;2022-11-12T00:22:35;21.50;;;14.80;;
51006;SDS011;37034;47.886;-3.904;2022-11-12T00:25:01;21.33;;;12.97;;
51006;SDS011;37034;47.886;-3.904;2022-11-12T00:27:27;21.33;;;14.80;;
51006;SDS011;37034;47.886;-3.904;2022-11-12T00:29:52;20.03;;;13.60;;
51006;SDS011;37034;47.886;-3.904;2022-11-12T00:32:18;25.03;;;16.07;;
51006;SDS011;37034;47.886;-3.904;2022-11-12T00:34:44;21.30;;;13.57;;
51006;SDS011;37034;47.886;-3.904;2022-11-12T00:37:10;23.40;;;13.98;;
51006;SDS011;37034;47.886;-3.904;2022-11-12T00:39:36;21.35;;;13.65;;
51006;SDS011;37034;47.886;-3.904;2022-11-12T00:42:02;27.08;;;13.73;;
51006;SDS011;37034;47.886;-3.904;2022-11-12T00:44:28;19.83;;;14.30;;
51006;SDS011;37034;47.886;-3.904;2022-11-12T00:46:54;22.60;;;14.70;;
51006;SDS011;37034;47.886;-3.904;2022-11-12T00:49:20;23.60;;;14.73;;
51006;SDS011;37034;47.886;-3.904;2022-11-12T00:51:46;21.17;;;14.00;;
51006;SDS011;37034;47.886;-3.904;2022-11-12T00:54:12;26.42;;;16.38;;
51006;SDS011;37034;47.886;-3.904;2022-11-12T00:56:38;23.50;;;14.90;;
51006;SDS011;37034;47.886;-3.904;2022-11-12T00:59:04;25.53;;;14.27;;
51006;SDS011;37034;47.886;-3.904;2022-11-12T01:01:29;23.90;;;14.77;;
51006;SDS011;37034;47.886;-3.904;2022-11-12T01:03:56;23.50;;;14.45;;
51006;SDS011;37034;47.886;-3.904;2022-11-12T01:06:23;26.25;;;14.85;;
51006;SDS011;37034;47.886;-3.904;2022-11-12T01:13:44;25.80;;;15.48;;
51006;SDS011;37034;47.886;-3.904;2022-11-12T01:16:15;34.92;;;16.88;;
51006;SDS011;37034;47.886;-3.904;2022-11-12T01:18:43;22.17;;;14.25;;
51006;SDS011;37034;47.886;-3.904;2022-11-12T01:21:10;23.77;;;14.13;;
51006;SDS011;37034;47.886;-3.904;2022-11-12T01:23:37;25.75;;;14.18;;
51006;SDS011;37034;47.886;-3.904;2022-11-12T01:26:05;26.77;;;15.63;;
51006;SDS011;37034;47.886;-3.904;2022-11-12T01:28:32;23.33;;;14.10;;
51006;SDS011;37034;47.886;-3.904;2022-11-12T01:31:08;22.83;;;14.77;;
51006;SDS011;37034;47.886;-3.904;2022-11-12T01:33:35;24.13;;;13.73;;
51006;SDS011;37034;47.886;-3.904;2022-11-12T01:36:01;25.93;;;13.77;;
51006;SDS011;37034;47.886;-3.904;2022-11-12T01:38:27;30.55;;;13.85;;
51006;SDS011;37034;47.886;-3.904;2022-11-12T01:40:52;26.88;;;14.50;;
51006;SDS011;37034;47.886;-3.904;2022-11-12T01:43:18;25.67;;;14.73;;
51006;SDS011;37034;47.886;-3.904;2022-11-12T01:45:44;21.67;;;13.60;;
51006;SDS011;37034;47.886;-3.904;2022-11-12T01:48:20;20.65;;;13.65;;
51006;SDS011;37034;47.886;-3.904;2022-11-12T01:50:52;19.52;;;13.48;;
51006;SDS011;37034;47.886;-3.904;2022-11-12T01:53:21;25.63;;;14.82;;
51006;SDS011;37034;47.886;-3.904;2022-11-12T01:55:50;20.02;;;12.90;;
51006;SDS011;37034;47.886;-3.904;2022-11-12T01:58:18;21.58;;;13.95;;
51006;SDS011;37034;47.886;-3.904;2022-11-12T02:00:46;22.90;;;13.15;;
51006;SDS011;37034;47.886;-3.904;2022-11-12T02:03:23;23.17;;;13.02;;
51006;SDS011;37034;47.886;-3.904;2022-11-12T02:05:53;21.02;;;12.65;;
51006;SDS011;37034;47.886;-3.904;2022-11-12T02:08:25;26.27;;;11.90;;
51006;SDS011;37034;47.886;-3.904;2022-11-12T02:10:53;27.20;;;12.75;;
51006;SDS011;37034;47.886;-3.904;2022-11-12T02:13:18;24.53;;;13.77;;
51006;SDS011;37034;47.886;-3.904;2022-11-12T02:16:03;26.98;;;12.40;;
51006;SDS011;37034;47.886;-3.904;2022-11-12T02:18:30;22.92;;;11.98;;
51006;SDS011;37034;47.886;-3.904;2022-11-12T02:20:56;20.73;;;11.13;;
51006;SDS011;37034;47.886;-3.904;2022-11-12T02:23:27;17.58;;;10.23;;
51006;SDS011;37034;47.886;-3.904;2022-11-12T02:25:53;21.03;;;9.80;;
51006;SDS011;37034;47.886;-3.904;2022-11-12T02:28:19;26.70;;;10.40;;
51006;SDS011;37034;47.886;-3.904;2022-11-12T02:30:46;22.27;;;10.32;;
51006;SDS011;37034;47.886;-3.904;2022-11-12T02:33:13;20.75;;;11.15;;
51006;SDS011;37034;47.886;-3.904;2022-11-12T02:35:39;20.27;;;10.57;;
51006;SDS011;37034;47.886;-3.904;2022-11-12T02:38:05;24.50;;;10.73;;
51006;SDS011;37034;47.886;-3.904;2022-11-12T02:40:32;21.55;;;10.32;;
51006;SDS011;37034;47.886;-3.904;2022-11-12T02:42:58;18.60;;;9.13;;
51006;SDS011;37034;47.886;-3.904;2022-11-12T02:45:24;17.07;;;9.33;;
51006;SDS011;37034;47.886;-3.904;2022-11-12T02:47:50;16.65;;;9.43;;
51006;SDS011;37034;47.886;-3.904;2022-11-12T02:50:16;17.30;;;8.48;;
51006;SDS011;37034;47.886;-3.904;2022-11-12T02:52:42;18.15;;;10.05;;
51006;SDS011;37034;47.886;-3.904;2022-11-12T02:55:09;21.23;;;10.02;;
51006;SDS011;37034;47.886;-3.904;2022-11-12T02:57:37;24.25;;;9.50;;
51006;SDS011;37034;47.886;-3.904;2022-11-12T03:00:04;23.65;;;9.82;;
51006;SDS011;37034;47.886;-3.904;2022-11-12T03:02:32;22.60;;;11.27;;
51006;SDS011;37034;47.886;-3.904;2022-11-12T03:04:58;15.30;;;8.27;;
51006;SDS011;37034;47.886;-3.904;2022-11-12T03:07:24;18.37;;;7.50;;
51006;SDS011;37034;47.886;-3.904;2022-11-12T03:09:50;16.57;;;8.20;;
51006;SDS011;37034;47.886;-3.904;2022-11-12T03:12:15;20.65;;;10.27;;
51006;SDS011;37034;47.886;-3.904;2022-11-12T03:14:41;26.92;;;10.40;;
51006;SDS011;37034;47.886;-3.904;2022-11-12T03:17:07;20.27;;;8.13;;
51006;SDS011;37034;47.886;-3.904;2022-11-12T03:19:33;18.70;;;8.93;;
51006;SDS011;37034;47.886;-3.904;2022-11-12T03:21:58;15.30;;;7.77;;
51006;SDS011;37034;47.886;-3.904;2022-11-12T03:24:24;21.33;;;9.03;;
51006;SDS011;37034;47.886;-3.904;2022-11-12T03:26:50;18.10;;;9.52;;
51006;SDS011;37034;47.886;-3.904;2022-11-12T03:29:16;22.27;;;9.07;;
51006;SDS011;37034;47.886;-3.904;2022-11-12T03:31:41;21.98;;;8.05;;
51006;SDS011;37034;47.886;-3.904;2022-11-12T03:34:07;23.10;;;9.37;;
51006;SDS011;37034;47.886;-3.904;2022-11-12T03:36:33;20.33;;;8.77;;
51006;SDS011;37034;47.886;-3.904;2022-11-12T03:38:58;20.70;;;9.00;;
51006;SDS011;37034;47.886;-3.904;2022-11-12T03:41:24;21.47;;;8.17;;
51006;SDS011;37034;47.886;-3.904;2022-11-12T03:43:50;17.07;;;8.40;;
51006;SDS011;37034;47.886;-3.904;2022-11-12T03:46:16;16.90;;;7.43;;
51006;SDS011;37034;47.886;-3.904;2022-11-12T03:48:41;16.17;;;8.25;;
51006;SDS011;37034;47.886;-3.904;2022-11-12T03:51:07;17.70;;;8.80;;
51006;SDS011;37034;47.886;-3.904;2022-11-12T03:53:33;17.67;;;8.27;;
51006;SDS011;37034;47.886;-3.904;2022-11-12T03:55:59;24.30;;;9.07;;
51006;SDS011;37034;47.886;-3.904;2022-11-12T03:58:25;18.13;;;8.27;;
51006;SDS011;37034;47.886;-3.904;2022-11-12T04:00:50;16.47;;;9.00;;
51006;SDS011;37034;47.886;-3.904;2022-11-12T04:03:16;15.73;;;8.70;;
51006;SDS011;37034;47.886;-3.904;2022-11-12T04:05:41;17.97;;;8.20;;
51006;SDS011;37034;47.886;-3.904;2022-11-12T04:08:39;16.17;;;7.75;;
51006;SDS011;37034;47.886;-3.904;2022-11-12T04:11:07;18.23;;;8.48;;
51006;SDS011;37034;47.886;-3.904;2022-11-12T04:13:37;23.45;;;8.10;;
51006;SDS011;37034;47.886;-3.904;2022-11-12T04:16:07;22.13;;;8.57;;
51006;SDS011;37034;47.886;-3.904;2022-11-12T04:18:56;20.75;;;7.95;;
51006;SDS011;37034;47.886;-3.904;2022-11-12T04:21:45;24.75;;;8.23;;
51006;SDS011;37034;47.886;-3.904;2022-11-12T04:24:19;19.35;;;7.70;;
51006;SDS011;37034;47.886;-3.904;2022-11-12T04:27:05;17.92;;;7.05;;
51006;SDS011;37034;47.886;-3.904;2022-11-12T04:29:32;28.30;;;8.25;;
51006;SDS011;37034;47.886;-3.904;2022-11-12T04:32:17;20.70;;;7.82;;
51006;SDS011;37034;47.886;-3.904;2022-11-12T04:34:43;23.77;;;8.57;;
51006;SDS011;37034;47.886;-3.904;2022-11-12T04:37:08;20.55;;;7.75;;
51006;SDS011;37034;47.886;-3.904;2022-11-12T04:39:34;15.50;;;7.73;;
51006;SDS011;37034;47.886;-3.904;2022-11-12T04:42:00;20.80;;;7.83;;
51006;SDS011;37034;47.886;-3.904;2022-11-12T04:44:44;18.85;;;6.40;;
51006;SDS011;37034;47.886;-3.904;2022-11-12T04:47:30;23.77;;;7.70;;
51006;SDS011;37034;47.886;-3.904;2022-11-12T04:50:02;19.02;;;7.00;;
51006;SDS011;37034;47.886;-3.904;2022-11-12T04:52:30;25.35;;;8.43;;
51006;SDS011;37034;47.886;-3.904;2022-11-12T04:54:56;31.25;;;7.85;;
51006;SDS011;37034;47.886;-3.904;2022-11-12T04:57:22;19.80;;;7.25;;
51006;SDS011;37034;47.886;-3.904;2022-11-12T04:59:49;23.50;;;7.07;;
51006;SDS011;37034;47.886;-3.904;2022-11-12T05:02:15;20.40;;;6.60;;
51006;SDS011;37034;47.886;-3.904;2022-11-12T05:07:07;24.33;;;7.00;;
51006;SDS011;37034;47.886;-3.904;2022-11-12T05:09:34;25.95;;;9.02;;
51006;SDS011;37034;47.886;-3.904;2022-11-12T05:12:00;26.13;;;7.88;;
51006;SDS011;37034;47.886;-3.904;2022-11-12T05:14:25;28.15;;;8.90;;
51006;SDS011;37034;47.886;-3.904;2022-11-12T05:16:51;19.50;;;7.30;;
51006;SDS011;37034;47.886;-3.904;2022-11-12T05:19:17;22.85;;;8.25;;
51006;SDS011;37034;47.886;-3.904;2022-11-12T05:21:43;21.27;;;7.40;;
51006;SDS011;37034;47.886;-3.904;2022-11-12T05:24:28;22.85;;;7.72;;
51006;SDS011;37034;47.886;-3.904;2022-11-12T05:26:54;21.25;;;6.93;;
51006;SDS011;37034;47.886;-3.904;2022-11-12T05:29:20;26.00;;;8.47;;
51006;SDS011;37034;47.886;-3.904;2022-11-12T05:31:46;21.17;;;7.70;;
51006;SDS011;37034;47.886;-3.904;2022-11-12T05:34:11;22.23;;;8.03;;
51006;SDS011;37034;47.886;-3.904;2022-11-12T05:36:37;23.60;;;7.43;;
51006;SDS011;37034;47.886;-3.904;2022-11-12T05:39:03;27.93;;;9.03;;
51006;SDS011;37034;47.886;-3.904;2022-11-12T05:41:29;27.53;;;9.13;;
51006;SDS011;37034;47.886;-3.904;2022-11-12T05:43:55;29.48;;;10.32;;
51006;SDS011;37034;47.886;-3.904;2022-11-12T05:46:21;26.87;;;9.33;;
51006;SDS011;37034;47.886;-3.904;2022-11-12T05:48:46;23.40;;;8.47;;
51006;SDS011;37034;47.886;-3.904;2022-11-12T05:51:12;28.03;;;9.57;;
51006;SDS011;37034;47.886;-3.904;2022-11-12T05:53:39;29.90;;;8.32;;
51006;SDS011;37034;47.886;-3.904;2022-11-12T05:56:06;24.67;;;9.40;;
51006;SDS011;37034;47.886;-3.904;2022-11-12T05:58:33;26.77;;;8.48;;
51006;SDS011;37034;47.886;-3.904;2022-11-12T06:00:59;30.00;;;8.98;;
51006;SDS011;37034;47.886;-3.904;2022-11-12T06:03:25;22.63;;;7.82;;
51006;SDS011;37034;47.886;-3.904;2022-11-12T06:05:51;27.38;;;9.30;;
51006;SDS011;37034;47.886;-3.904;2022-11-12T06:08:17;33.23;;;8.67;;
51006;SDS011;37034;47.886;-3.904;2022-11-12T06:10:50;28.07;;;9.50;;
51006;SDS011;37034;47.886;-3.904;2022-11-12T06:13:17;18.45;;;7.07;;
51006;SDS011;37034;47.886;-3.904;2022-11-12T06:15:43;21.90;;;8.00;;
51006;SDS011;37034;47.886;-3.904;2022-11-12T06:18:09;28.50;;;8.02;;
51006;SDS011;37034;47.886;-3.904;2022-11-12T06:20:36;17.95;;;6.55;;
51006;SDS011;37034;47.886;-3.904;2022-11-12T06:23:02;27.77;;;8.27;;
51006;SDS011;37034;47.886;-3.904;2022-11-12T06:25:28;28.33;;;8.85;;
51006;SDS011;37034;47.886;-3.904;2022-11-12T06:27:54;32.03;;;7.88;;
51006;SDS011;37034;47.886;-3.904;2022-11-12T06:30:19;19.73;;;7.38;;
51006;SDS011;37034;47.886;-3.904;2022-11-12T06:32:48;25.40;;;7.50;;
51006;SDS011;37034;47.886;-3.904;2022-11-12T06:35:14;18.33;;;6.43;;
51006;SDS011;37034;47.886;-3.904;2022-11-12T06:37:41;17.63;;;6.72;;
51006;SDS011;37034;47.886;-3.904;2022-11-12T06:40:09;23.38;;;7.05;;
51006;SDS011;37034;47.886;-3.904;2022-11-12T06:42:34;25.23;;;7.90;;
51006;SDS011;37034;47.886;-3.904;2022-11-12T06:45:00;29.70;;;8.80;;
51006;SDS011;37034;47.886;-3.904;2022-11-12T06:47:26;22.05;;;8.35;;
51006;SDS011;37034;47.886;-3.904;2022-11-12T06:49:51;27.03;;;7.73;;
51006;SDS011;37034;47.886;-3.904;2022-11-12T06:52:17;17.87;;;7.37;;
51006;SDS011;37034;47.886;-3.904;2022-11-12T06:54:43;23.20;;;7.07;;
51006;SDS011;37034;47.886;-3.904;2022-11-12T06:57:09;30.63;;;7.38;;
51006;SDS011;37034;47.886;-3.904;2022-11-12T06:59:34;28.02;;;8.15;;
51006;SDS011;37034;47.886;-3.904;2022-11-12T07:02:00;22.75;;;7.35;;
51006;SDS011;37034;47.886;-3.904;2022-11-12T07:04:26;31.70;;;8.00;;
51006;SDS011;37034;47.886;-3.904;2022-11-12T07:06:51;24.67;;;7.00;;
51006;SDS011;37034;47.886;-3.904;2022-11-12T07:09:17;15.70;;;6.50;;
51006;SDS011;37034;47.886;-3.904;2022-11-12T07:11:43;26.80;;;7.27;;
51006;SDS011;37034;47.886;-3.904;2022-11-12T07:14:08;28.67;;;7.63;;
51006;SDS011;37034;47.886;-3.904;2022-11-12T07:16:34;24.17;;;6.37;;
51006;SDS011;37034;47.886;-3.904;2022-11-12T07:19:00;21.27;;;6.93;;
51006;SDS011;37034;47.886;-3.904;2022-11-12T07:21:26;27.77;;;6.80;;
51006;SDS011;37034;47.886;-3.904;2022-11-12T07:23:51;28.88;;;7.82;;
51006;SDS011;37034;47.886;-3.904;2022-11-12T07:26:19;31.15;;;8.52;;
51006;SDS011;37034;47.886;-3.904;2022-11-12T07:28:47;24.90;;;6.65;;
51006;SDS011;37034;47.886;-3.904;2022-11-12T07:31:14;31.70;;;8.60;;
51006;SDS011;37034;47.886;-3.904;2022-11-12T07:33:41;26.33;;;7.32;;
51006;SDS011;37034;47.886;-3.904;2022-11-12T07:36:09;25.38;;;7.40;;
51006;SDS011;37034;47.886;-3.904;2022-11-12T07:38:39;31.23;;;6.97;;
51006;SDS011;37034;47.886;-3.904;2022-11-12T07:41:09;23.10;;;5.97;;
51006;SDS011;37034;47.886;-3.904;2022-11-12T07:43:40;23.23;;;6.72;;
51006;SDS011;37034;47.886;-3.904;2022-11-12T07:46:09;28.98;;;7.30;;
51006;SDS011;37034;47.886;-3.904;2022-11-12T07:48:37;24.20;;;6.15;;
51006;SDS011;37034;47.886;-3.904;2022-11-12T07:51:04;33.08;;;7.40;;
51006;SDS011;37034;47.886;-3.904;2022-11-12T07:53:31;28.63;;;6.90;;
51006;SDS011;37034;47.886;-3.904;2022-11-12T07:55:59;25.02;;;6.75;;
51006;SDS011;37034;47.886;-3.904;2022-11-12T07:58:26;28.88;;;6.93;;
51006;SDS011;37034;47.886;-3.904;2022-11-12T08:00:55;34.75;;;6.63;;
51006;SDS011;37034;47.886;-3.904;2022-11-12T08:03:20;25.13;;;7.23;;
51006;SDS011;37034;47.886;-3.904;2022-11-12T08:05:46;27.40;;;6.47;;
51006;SDS011;37034;47.886;-3.904;2022-11-12T08:08:12;24.92;;;6.10;;
51006;SDS011;37034;47.886;-3.904;2022-11-12T08:10:38;31.00;;;7.07;;
51006;SDS011;37034;47.886;-3.904;2022-11-12T08:13:03;30.70;;;7.50;;
51006;SDS011;37034;47.886;-3.904;2022-11-12T08:15:29;29.38;;;7.13;;
51006;SDS011;37034;47.886;-3.904;2022-11-12T08:17:56;25.88;;;7.13;;
51006;SDS011;37034;47.886;-3.904;2022-11-12T08:20:21;32.10;;;6.75;;
51006;SDS011;37034;47.886;-3.904;2022-11-12T08:22:47;36.67;;;7.38;;
51006;SDS011;37034;47.886;-3.904;2022-11-12T08:25:13;27.40;;;6.07;;
51006;SDS011;37034;47.886;-3.904;2022-11-12T08:30:06;38.08;;;6.97;;
51006;SDS011;37034;47.886;-3.904;2022-11-12T08:32:32;28.77;;;6.03;;
51006;SDS011;37034;47.886;-3.904;2022-11-12T08:34:58;39.63;;;7.50;;
51006;SDS011;37034;47.886;-3.904;2022-11-12T08:37:23;32.03;;;7.07;;
51006;SDS011;37034;47.886;-3.904;2022-11-12T08:39:49;44.88;;;7.78;;
51006;SDS011;37034;47.886;-3.904;2022-11-12T08:42:15;33.07;;;7.10;;
51006;SDS011;37034;47.886;-3.904;2022-11-12T08:44:40;30.97;;;6.43;;
51006;SDS011;37034;47.886;-3.904;2022-11-12T08:47:06;29.53;;;7.23;;
51006;SDS011;37034;47.886;-3.904;2022-11-12T08:49:32;32.60;;;6.17;;
51006;SDS011;37034;47.886;-3.904;2022-11-12T08:51:57;28.90;;;6.23;;
51006;SDS011;37034;47.886;-3.904;2022-11-12T08:54:23;31.20;;;7.60;;
51006;SDS011;37034;47.886;-3.904;2022-11-12T08:56:49;29.23;;;5.93;;
51006;SDS011;37034;47.886;-3.904;2022-11-12T08:59:14;37.60;;;7.70;;
51006;SDS011;37034;47.886;-3.904;2022-11-12T09:01:40;34.53;;;6.50;;
51006;SDS011;37034;47.886;-3.904;2022-11-12T09:04:09;29.80;;;6.87;;
51006;SDS011;37034;47.886;-3.904;2022-11-12T09:06:35;36.90;;;6.55;;
51006;SDS011;37034;47.886;-3.904;2022-11-12T09:09:00;41.47;;;7.63;;
51006;SDS011;37034;47.886;-3.904;2022-11-12T09:11:26;49.93;;;7.43;;
51006;SDS011;37034;47.886;-3.904;2022-11-12T09:13:52;39.57;;;8.13;;
51006;SDS011;37034;47.886;-3.904;2022-11-12T09:16:18;43.03;;;7.05;;
51006;SDS011;37034;47.886;-3.904;2022-11-12T09:18:45;35.25;;;7.15;;
51006;SDS011;37034;47.886;-3.904;2022-11-12T09:21:11;43.97;;;7.60;;
51006;SDS011;37034;47.886;-3.904;2022-11-12T09:23:37;43.00;;;8.13;;
51006;SDS011;37034;47.886;-3.904;2022-11-12T09:26:04;38.17;;;6.53;;
51006;SDS011;37034;47.886;-3.904;2022-11-12T09:28:30;53.35;;;9.05;;
51006;SDS011;37034;47.886;-3.904;2022-11-12T09:33:23;31.33;;;6.30;;
51006;SDS011;37034;47.886;-3.904;2022-11-12T09:35:52;38.42;;;6.40;;
51006;SDS011;37034;47.886;-3.904;2022-11-12T09:38:18;38.17;;;7.82;;
51006;SDS011;37034;47.886;-3.904;2022-11-12T09:43:20;35.80;;;6.68;;
51006;SDS011;37034;47.886;-3.904;2022-11-12T09:45:51;36.13;;;7.18;;
51006;SDS011;37034;47.886;-3.904;2022-11-12T09:48:21;35.60;;;6.88;;
51006;SDS011;37034;47.886;-3.904;2022-11-12T09:55:51;36.45;;;6.32;;
51006;SDS011;37034;47.886;-3.904;2022-11-12T09:58:18;31.13;;;6.03;;
51006;SDS011;37034;47.886;-3.904;2022-11-12T10:03:41;45.50;;;6.97;;
51006;SDS011;37034;47.886;-3.904;2022-11-12T10:06:28;31.80;;;6.93;;
51006;SDS011;37034;47.886;-3.904;2022-11-12T10:09:18;27.40;;;5.55;;
51006;SDS011;37034;47.886;-3.904;2022-11-12T10:11:53;32.42;;;7.22;;
51006;SDS011;37034;47.886;-3.904;2022-11-12T10:17:57;32.90;;;5.95;;
51006;SDS011;37034;47.886;-3.904;2022-11-12T10:20:38;32.28;;;6.53;;
51006;SDS011;37034;47.886;-3.904;2022-11-12T10:23:19;36.97;;;6.07;;
51006;SDS011;37034;47.886;-3.904;2022-11-12T10:25:51;33.47;;;6.47;;
51006;SDS011;37034;47.886;-3.904;2022-11-12T10:28:26;32.15;;;6.07;;
51006;SDS011;37034;47.886;-3.904;2022-11-12T10:30:55;32.75;;;6.70;;
51006;SDS011;37034;47.886;-3.904;2022-11-12T10:33:29;35.80;;;6.97;;
51006;SDS011;37034;47.886;-3.904;2022-11-12T10:35:56;29.67;;;5.25;;
51006;SDS011;37034;47.886;-3.904;2022-11-12T10:38:37;28.88;;;6.35;;
51006;SDS011;37034;47.886;-3.904;2022-11-12T10:41:16;25.52;;;5.90;;
51006;SDS011;37034;47.886;-3.904;2022-11-12T10:43:53;34.72;;;6.13;;
51006;SDS011;37034;47.886;-3.904;2022-11-12T10:46:21;32.58;;;6.13;;
51006;SDS011;37034;47.886;-3.904;2022-11-12T10:48:53;37.40;;;6.65;;
51006;SDS011;37034;47.886;-3.904;2022-11-12T10:51:25;34.08;;;6.40;;
51006;SDS011;37034;47.886;-3.904;2022-11-12T10:53:53;34.17;;;6.45;;
51006;SDS011;37034;47.886;-3.904;2022-11-12T10:56:29;28.90;;;5.70;;
51006;SDS011;37034;47.886;-3.904;2022-11-12T10:59:09;33.80;;;6.00;;
51006;SDS011;37034;47.886;-3.904;2022-11-12T11:01:39;33.08;;;6.30;;
51006;SDS011;37034;47.886;-3.904;2022-11-12T11:04:14;35.40;;;6.40;;
51006;SDS011;37034;47.886;-3.904;2022-11-12T11:06:43;37.00;;;5.43;;
51006;SDS011;37034;47.886;-3.904;2022-11-12T11:11:38;31.33;;;6.18;;
51006;SDS011;37034;47.886;-3.904;2022-11-12T11:16:53;33.95;;;6.03;;
51006;SDS011;37034;47.886;-3.904;2022-11-12T11:19:21;29.20;;;6.53;;
51006;SDS011;37034;47.886;-3.904;2022-11-12T11:22:01;37.95;;;6.15;;
51006;SDS011;37034;47.886;-3.904;2022-11-12T11:25:04;30.27;;;5.78;;
51006;SDS011;37034;47.886;-3.904;2022-11-12T11:30:23;31.65;;;5.45;;
51006;SDS011;37034;47.886;-3.904;2022-11-12T11:43:47;26.02;;;4.47;;
51006;SDS011;37034;47.886;-3.904;2022-11-12T11:57:39;25.20;;;5.20;;
51006;SDS011;37034;47.886;-3.904;2022-11-12T12:00:22;29.58;;;5.18;;
51006;SDS011;37034;47.886;-3.904;2022-11-12T12:08:41;29.30;;;5.43;;
51006;SDS011;37034;47.886;-3.904;2022-11-12T12:11:29;31.63;;;4.80;;
51006;SDS011;37034;47.886;-3.904;2022-11-12T12:16:46;22.40;;;4.13;;
51006;SDS011;37034;47.886;-3.904;2022-11-12T12:22:19;34.23;;;6.17;;
51006;SDS011;37034;47.886;-3.904;2022-11-12T12:24:54;30.48;;;5.38;;
51006;SDS011;37034;47.886;-3.904;2022-11-12T12:27:26;23.52;;;4.72;;
51006;SDS011;37034;47.886;-3.904;2022-11-12T12:32:42;30.80;;;5.13;;
51006;SDS011;37034;47.886;-3.904;2022-11-12T12:38:21;28.08;;;4.72;;
51006;SDS011;37034;47.886;-3.904;2022-11-12T12:43:52;23.88;;;4.85;;
51006;SDS011;37034;47.886;-3.904;2022-11-12T12:46:26;29.50;;;4.93;;
51006;SDS011;37034;47.886;-3.904;2022-11-12T12:48:55;25.65;;;4.80;;
51006;SDS011;37034;47.886;-3.904;2022-11-12T12:51:23;27.50;;;5.65;;
51006;SDS011;37034;47.886;-3.904;2022-11-12T12:53:53;21.80;;;3.60;;
51006;SDS011;37034;47.886;-3.904;2022-11-12T12:58:48;28.92;;;5.22;;
51006;SDS011;37034;47.886;-3.904;2022-11-12T13:37:51;24.48;;;5.43;;
51006;SDS011;37034;47.886;-3.904;2022-11-12T13:40:32;28.10;;;4.80;;
51006;SDS011;37034;47.886;-3.904;2022-11-12T13:48:27;23.27;;;5.15;;
51006;SDS011;37034;47.886;-3.904;2022-11-12T13:51:00;28.42;;;4.55;;
51006;SDS011;37034;47.886;-3.904;2022-11-12T13:53:29;33.55;;;5.40;;
51006;SDS011;37034;47.886;-3.904;2022-11-12T13:55:57;23.00;;;5.13;;
51006;SDS011;37034;47.886;-3.904;2022-11-12T14:00:54;32.30;;;4.90;;
51006;SDS011;37034;47.886;-3.904;2022-11-12T14:03:25;34.00;;;6.32;;
51006;SDS011;37034;47.886;-3.904;2022-11-12T14:05:55;26.02;;;4.78;;
51006;SDS011;37034;47.886;-3.904;2022-11-12T14:08:32;27.80;;;4.70;;
51006;SDS011;37034;47.886;-3.904;2022-11-12T14:16:40;24.33;;;4.75;;
51006;SDS011;37034;47.886;-3.904;2022-11-12T14:19:46;26.20;;;4.30;;
51006;SDS011;37034;47.886;-3.904;2022-11-12T14:22:43;27.17;;;4.60;;
51006;SDS011;37034;47.886;-3.904;2022-11-12T14:25:20;29.13;;;5.90;;
51006;SDS011;37034;47.886;-3.904;2022-11-12T14:27:50;26.35;;;5.03;;
51006;SDS011;37034;47.886;-3.904;2022-11-12T14:30:28;24.45;;;4.03;;
51006;SDS011;37034;47.886;-3.904;2022-11-12T14:32:57;26.95;;;4.50;;
51006;SDS011;37034;47.886;-3.904;2022-11-12T14:35:34;24.42;;;5.22;;
51006;SDS011;37034;47.886;-3.904;2022-11-12T14:38:12;24.77;;;3.88;;
51006;SDS011;37034;47.886;-3.904;2022-11-12T14:40:53;28.15;;;4.65;;
51006;SDS011;37034;47.886;-3.904;2022-11-12T14:44:03;27.52;;;4.82;;
51006;SDS011;37034;47.886;-3.904;2022-11-12T14:46:22;27.13;;;4.40;;
51006;SDS011;37034;47.886;-3.904;2022-11-12T14:48:59;32.28;;;5.15;;
51006;SDS011;37034;47.886;-3.904;2022-11-12T14:51:28;31.48;;;4.68;;
51006;SDS011;37034;47.886;-3.904;2022-11-12T14:54:02;35.40;;;5.35;;
51006;SDS011;37034;47.886;-3.904;2022-11-12T14:59:03;32.03;;;5.47;;
51006;SDS011;37034;47.886;-3.904;2022-11-12T15:01:31;28.92;;;5.13;;
51006;SDS011;37034;47.886;-3.904;2022-11-12T15:04:03;35.75;;;6.10;;
51006;SDS011;37034;47.886;-3.904;2022-11-12T15:06:35;39.38;;;6.03;;
51006;SDS011;37034;47.886;-3.904;2022-11-12T15:09:01;32.15;;;6.00;;
51006;SDS011;37034;47.886;-3.904;2022-11-12T15:11:29;30.92;;;5.80;;
51006;SDS011;37034;47.886;-3.904;2022-11-12T15:13:59;37.17;;;7.47;;
51006;SDS011;37034;47.886;-3.904;2022-11-12T15:16:31;28.92;;;5.25;;
51006;SDS011;37034;47.886;-3.904;2022-11-12T15:19:01;27.38;;;5.53;;
51006;SDS011;37034;47.886;-3.904;2022-11-12T15:21:29;30.20;;;5.85;;
51006;SDS011;37034;47.886;-3.904;2022-11-12T15:24:02;26.52;;;4.80;;
51006;SDS011;37034;47.886;-3.904;2022-11-12T15:29:01;27.90;;;4.13;;
51006;SDS011;37034;47.886;-3.904;2022-11-12T15:34:41;26.45;;;5.10;;
51006;SDS011;37034;47.886;-3.904;2022-11-12T15:37:04;31.17;;;5.30;;
51006;SDS011;37034;47.886;-3.904;2022-11-12T15:39:39;24.75;;;4.97;;
51006;SDS011;37034;47.886;-3.904;2022-11-12T15:42:20;21.90;;;5.45;;
51006;SDS011;37034;47.886;-3.904;2022-11-12T15:44:56;30.23;;;5.20;;
51006;SDS011;37034;47.886;-3.904;2022-11-12T15:47:26;35.67;;;5.75;;
51006;SDS011;37034;47.886;-3.904;2022-11-12T15:49:53;31.85;;;5.18;;
51006;SDS011;37034;47.886;-3.904;2022-11-12T15:52:21;32.03;;;4.80;;
51006;SDS011;37034;47.886;-3.904;2022-11-12T15:54:49;32.30;;;5.28;;
51006;SDS011;37034;47.886;-3.904;2022-11-12T15:57:16;29.52;;;5.70;;
51006;SDS011;37034;47.886;-3.904;2022-11-12T15:59:44;31.83;;;5.93;;
51006;SDS011;37034;47.886;-3.904;2022-11-12T16:02:38;25.58;;;5.13;;
51006;SDS011;37034;47.886;-3.904;2022-11-12T16:05:04;33.47;;;5.93;;
51006;SDS011;37034;47.886;-3.904;2022-11-12T16:07:35;33.50;;;5.03;;
51006;SDS011;37034;47.886;-3.904;2022-11-12T16:10:01;31.03;;;5.27;;
51006;SDS011;37034;47.886;-3.904;2022-11-12T16:12:27;31.15;;;6.75;;
51006;SDS011;37034;47.886;-3.904;2022-11-12T16:17:19;30.60;;;5.40;;
51006;SDS011;37034;47.886;-3.904;2022-11-12T16:19:46;35.13;;;5.60;;
51006;SDS011;37034;47.886;-3.904;2022-11-12T16:22:11;36.05;;;6.00;;
51006;SDS011;37034;47.886;-3.904;2022-11-12T16:24:41;36.33;;;6.20;;
51006;SDS011;37034;47.886;-3.904;2022-11-12T16:27:13;26.42;;;4.88;;
51006;SDS011;37034;47.886;-3.904;2022-11-12T16:29:39;29.10;;;6.03;;
51006;SDS011;37034;47.886;-3.904;2022-11-12T16:32:05;33.97;;;6.07;;
51006;SDS011;37034;47.886;-3.904;2022-11-12T16:34:35;32.10;;;5.82;;
51006;SDS011;37034;47.886;-3.904;2022-11-12T16:37:00;28.00;;;5.33;;
51006;SDS011;37034;47.886;-3.904;2022-11-12T16:39:26;31.48;;;6.30;;
51006;SDS011;37034;47.886;-3.904;2022-11-12T16:41:52;32.83;;;5.33;;
51006;SDS011;37034;47.886;-3.904;2022-11-12T16:44:17;23.57;;;5.13;;
51006;SDS011;37034;47.886;-3.904;2022-11-12T16:46:43;33.05;;;5.93;;
51006;SDS011;37034;47.886;-3.904;2022-11-12T16:49:12;32.28;;;6.70;;